createdAt,value
2019-01-28T00:02:26.774Z,6.22
2019-01-28T00:04:54.145Z,6.90
2019-01-28T00:07:21.398Z,7.03
2019-01-28T00:09:48.710Z,6.30
2019-01-28T00:12:15.995Z,7.67
2019-01-28T00:14:43.296Z,7.10
2019-01-28T00:17:10.606Z,7.28
2019-01-28T00:19:37.910Z,7.05
2019-01-28T00:22:05.196Z,7.42
2019-01-28T00:24:32.483Z,7.97
2019-01-28T00:26:59.798Z,8.25
2019-01-28T00:29:27.085Z,8.40
2019-01-28T00:31:54.402Z,8.40
2019-01-28T00:34:21.696Z,7.47
2019-01-28T00:36:48.977Z,7.40
2019-01-28T00:39:16.277Z,8.50
2019-01-28T00:41:43.569Z,7.70
2019-01-28T00:44:10.883Z,7.95
2019-01-28T00:46:38.173Z,7.65
2019-01-28T00:49:05.476Z,7.75
2019-01-28T00:51:32.766Z,8.55
2019-01-28T00:54:00.057Z,8.00
2019-01-28T00:56:27.370Z,7.30
2019-01-28T00:58:54.666Z,7.47
2019-01-28T01:01:21.949Z,8.00
2019-01-28T01:03:49.256Z,8.35
2019-01-28T01:06:16.558Z,8.60
2019-01-28T01:08:43.838Z,7.87
2019-01-28T01:11:11.154Z,8.00
2019-01-28T01:13:38.437Z,8.65
2019-01-28T01:16:05.725Z,8.53
2019-01-28T01:18:33.035Z,8.65
2019-01-28T01:21:00.325Z,9.33
2019-01-28T01:23:27.636Z,8.85
2019-01-28T01:25:54.920Z,9.05
2019-01-28T01:28:22.233Z,9.00
2019-01-28T01:30:49.525Z,9.13
2019-01-28T01:33:16.815Z,9.43
2019-01-28T01:35:44.153Z,9.60
2019-01-28T01:38:11.449Z,9.85
2019-01-28T01:40:38.774Z,9.70
2019-01-28T01:43:06.069Z,9.40
2019-01-28T01:45:33.397Z,10.40
2019-01-28T01:48:00.694Z,11.10
2019-01-28T01:50:27.989Z,10.63
2019-01-28T01:52:55.311Z,9.28
2019-01-28T01:55:22.601Z,9.43
2019-01-28T01:57:49.931Z,10.20
2019-01-28T02:00:18.095Z,9.75
2019-01-28T02:02:45.602Z,9.90
2019-01-28T02:05:12.891Z,9.88
2019-01-28T02:07:40.181Z,9.80
2019-01-28T02:10:09.151Z,10.13
2019-01-28T02:12:36.452Z,10.70
2019-01-28T02:15:05.014Z,10.98
2019-01-28T02:17:32.338Z,10.00
2019-01-28T02:19:59.628Z,9.90
2019-01-28T02:22:26.908Z,9.85
2019-01-28T02:24:54.224Z,9.48
2019-01-28T02:27:21.518Z,9.63
2019-01-28T02:29:48.828Z,9.18
2019-01-28T02:32:16.122Z,9.80
2019-01-28T02:34:43.428Z,9.08
2019-01-28T02:37:10.730Z,10.45
2019-01-28T02:39:38.036Z,9.63
2019-01-28T02:42:05.334Z,10.05
2019-01-28T02:44:32.655Z,10.85
2019-01-28T02:47:00.115Z,9.30
2019-01-28T02:49:27.402Z,9.00
2019-01-28T02:51:54.808Z,10.00
2019-01-28T02:54:22.142Z,10.30
2019-01-28T02:56:49.434Z,9.85
2019-01-28T02:59:16.736Z,9.73
2019-01-28T03:01:44.059Z,9.45
2019-01-28T03:04:11.346Z,9.40
2019-01-28T03:06:38.653Z,9.55
2019-01-28T03:09:07.040Z,9.25
2019-01-28T03:11:34.328Z,9.78
2019-01-28T03:14:01.645Z,9.90
2019-01-28T03:16:28.941Z,9.93
2019-01-28T03:18:56.263Z,9.75
2019-01-28T03:21:23.569Z,10.13
2019-01-28T03:23:50.913Z,9.48
2019-01-28T03:26:18.222Z,9.60
2019-01-28T03:28:45.522Z,9.60
2019-01-28T03:31:12.824Z,10.08
2019-01-28T03:33:40.137Z,9.85
2019-01-28T03:36:07.434Z,9.75
2019-01-28T03:38:34.746Z,9.00
2019-01-28T03:41:02.074Z,9.80
2019-01-28T03:43:29.459Z,8.93
2019-01-28T03:45:56.760Z,10.00
2019-01-28T03:48:24.055Z,9.75
2019-01-28T03:50:51.349Z,10.40
2019-01-28T03:53:18.740Z,9.90
2019-01-28T03:55:46.025Z,9.58
2019-01-28T03:58:13.324Z,9.80
2019-01-28T04:00:40.642Z,10.13
2019-01-28T04:03:07.945Z,10.50
2019-01-28T04:05:35.255Z,8.70
2019-01-28T04:08:02.546Z,9.08
2019-01-28T04:10:29.863Z,9.55
2019-01-28T04:12:57.168Z,9.28
2019-01-28T04:15:25.019Z,9.10
2019-01-28T04:17:52.411Z,9.00
2019-01-28T04:20:20.665Z,8.93
2019-01-28T04:22:47.950Z,9.55
2019-01-28T04:25:15.256Z,9.38
2019-01-28T04:27:42.541Z,9.23
2019-01-28T04:30:14.172Z,9.05
2019-01-28T04:32:41.456Z,8.98
2019-01-28T04:35:08.772Z,9.63
2019-01-28T04:37:36.052Z,8.88
2019-01-28T04:40:04.404Z,9.00
2019-01-28T04:42:31.721Z,10.38
2019-01-28T04:44:59.043Z,9.05
2019-01-28T04:47:26.339Z,9.10
2019-01-28T04:49:53.625Z,9.13
2019-01-28T04:52:20.942Z,8.90
2019-01-28T04:54:48.225Z,8.95
2019-01-28T04:57:15.537Z,9.93
2019-01-28T04:59:42.834Z,9.65
2019-01-28T05:02:10.154Z,9.25
2019-01-28T05:04:37.457Z,9.58
2019-01-28T05:07:04.762Z,10.08
2019-01-28T05:09:32.109Z,9.15
2019-01-28T05:11:59.379Z,8.90
2019-01-28T05:14:26.703Z,8.70
2019-01-28T05:16:53.988Z,8.80
2019-01-28T05:19:21.282Z,8.90
2019-01-28T05:21:48.589Z,9.00
2019-01-28T05:24:15.878Z,9.33
2019-01-28T05:26:43.216Z,9.85
2019-01-28T05:29:10.523Z,10.13
2019-01-28T05:31:37.813Z,8.68
2019-01-28T05:34:05.130Z,9.50
2019-01-28T05:36:32.410Z,8.80
2019-01-28T05:38:59.716Z,8.48
2019-01-28T05:41:27.100Z,9.20
2019-01-28T05:43:54.387Z,8.13
2019-01-28T05:46:21.693Z,9.03
2019-01-28T05:48:48.975Z,8.90
2019-01-28T05:51:16.253Z,8.88
2019-01-28T05:53:43.581Z,9.05
2019-01-28T05:56:10.894Z,9.10
2019-01-28T05:58:38.184Z,8.63
2019-01-28T06:01:05.484Z,8.65
2019-01-28T06:03:32.778Z,8.90
2019-01-28T06:06:00.089Z,9.10
2019-01-28T06:08:27.377Z,9.50
2019-01-28T06:10:54.667Z,8.60
2019-01-28T06:13:21.982Z,7.47
2019-01-28T06:15:49.266Z,7.97
2019-01-28T06:18:16.580Z,8.48
2019-01-28T06:20:43.901Z,8.50
2019-01-28T06:23:11.192Z,8.00
2019-01-28T06:25:38.480Z,7.92
2019-01-28T06:28:05.775Z,6.97
2019-01-28T06:30:33.090Z,7.25
2019-01-28T06:33:00.382Z,7.55
2019-01-28T06:35:27.700Z,7.85
2019-01-28T06:37:55.167Z,7.55
2019-01-28T06:40:24.118Z,8.70
2019-01-28T06:42:51.407Z,7.83
2019-01-28T06:45:18.705Z,7.60
2019-01-28T06:47:47.063Z,7.70
2019-01-28T06:50:16.050Z,8.10
2019-01-28T06:52:43.370Z,7.20
2019-01-28T06:55:10.813Z,7.28
2019-01-28T06:57:38.104Z,7.10
2019-01-28T07:00:09.908Z,7.78
2019-01-28T07:02:37.189Z,7.25
2019-01-28T07:05:05.083Z,7.25
2019-01-28T07:07:32.361Z,6.85
2019-01-28T07:09:59.658Z,7.47
2019-01-28T07:12:26.962Z,6.83
2019-01-28T07:14:54.262Z,7.58
2019-01-28T07:17:21.545Z,6.95
2019-01-28T07:19:48.925Z,7.30
2019-01-28T07:22:16.239Z,6.60
2019-01-28T07:24:44.384Z,7.53
2019-01-28T07:27:11.765Z,7.92
2019-01-28T07:29:39.057Z,7.65
2019-01-28T07:32:06.377Z,7.25
2019-01-28T07:34:33.686Z,6.75
2019-01-28T07:37:00.985Z,6.55
2019-01-28T07:39:28.293Z,7.30
2019-01-28T07:41:55.586Z,7.30
2019-01-28T07:44:22.906Z,7.53
2019-01-28T07:46:50.222Z,7.25
2019-01-28T07:49:17.505Z,7.00
2019-01-28T07:51:44.814Z,7.30
2019-01-28T07:54:12.197Z,7.65
2019-01-28T07:56:39.505Z,6.92
2019-01-28T07:59:06.804Z,7.08
2019-01-28T08:01:34.108Z,7.75
2019-01-28T08:04:01.414Z,6.80
2019-01-28T08:06:28.706Z,6.25
2019-01-28T08:08:56.008Z,6.35
2019-01-28T08:11:23.311Z,6.70
2019-01-28T08:13:52.391Z,6.05
2019-01-28T08:16:19.567Z,6.75
2019-01-28T08:18:46.881Z,6.20
2019-01-28T08:21:14.170Z,5.72
2019-01-28T08:23:41.457Z,5.80
2019-01-28T08:26:08.775Z,6.20
2019-01-28T08:28:36.921Z,5.95
2019-01-28T08:31:04.599Z,6.20
2019-01-28T08:33:31.910Z,5.90
2019-01-28T08:35:59.214Z,5.92
2019-01-28T08:38:26.518Z,6.30
2019-01-28T08:40:53.836Z,5.75
2019-01-28T08:43:21.123Z,6.30
2019-01-28T08:45:48.448Z,6.15
2019-01-28T08:48:18.344Z,5.72
2019-01-28T08:50:44.849Z,13.75
2019-01-28T08:53:12.175Z,5.70
2019-01-28T08:55:39.474Z,17.85
2019-01-28T08:58:06.795Z,11.20
2019-01-28T09:00:38.166Z,6.25
2019-01-28T09:03:05.479Z,10.23
2019-01-28T09:05:32.753Z,7.90
2019-01-28T09:08:00.072Z,8.60
2019-01-28T09:10:28.027Z,6.72
2019-01-28T09:12:55.320Z,6.05
2019-01-28T09:15:23.304Z,5.80
2019-01-28T09:17:50.619Z,5.90
2019-01-28T09:20:21.795Z,7.28
2019-01-28T09:22:49.109Z,9.60
2019-01-28T09:25:16.556Z,5.55
2019-01-28T09:27:43.881Z,6.05
2019-01-28T09:30:12.825Z,6.03
2019-01-28T09:32:40.127Z,6.50
2019-01-28T09:35:08.016Z,6.30
2019-01-28T09:37:35.300Z,5.60
2019-01-28T09:40:03.152Z,5.92
2019-01-28T09:42:30.466Z,6.25
2019-01-28T09:44:57.777Z,5.92
2019-01-28T09:47:25.079Z,13.60
2019-01-28T09:49:52.391Z,5.85
2019-01-28T09:52:19.711Z,5.70
2019-01-28T09:54:47.049Z,6.15
2019-01-28T09:57:14.331Z,5.90
2019-01-28T09:59:41.621Z,5.70
2019-01-28T10:02:08.914Z,6.70
2019-01-28T10:04:36.231Z,5.67
2019-01-28T10:07:03.526Z,5.95
2019-01-28T10:09:30.805Z,5.62
2019-01-28T10:11:58.111Z,5.97
2019-01-28T10:14:25.392Z,5.50
2019-01-28T10:16:52.702Z,5.80
2019-01-28T10:19:19.998Z,6.10
2019-01-28T10:21:47.315Z,6.90
2019-01-28T10:24:14.589Z,6.20
2019-01-28T10:26:41.885Z,6.20
2019-01-28T10:29:09.205Z,6.10
2019-01-28T10:31:36.495Z,5.67
2019-01-28T10:34:03.816Z,5.67
2019-01-28T10:36:34.221Z,6.17
2019-01-28T10:39:00.103Z,6.55
2019-01-28T10:41:27.418Z,5.85
2019-01-28T10:43:54.721Z,5.90
2019-01-28T10:46:22.008Z,6.17
2019-01-28T10:48:49.832Z,5.80
2019-01-28T10:51:17.257Z,6.53
2019-01-28T10:53:44.570Z,5.97
2019-01-28T10:56:11.857Z,5.92
2019-01-28T10:58:39.155Z,5.80
2019-01-28T11:01:06.443Z,5.80
2019-01-28T11:03:33.758Z,6.00
2019-01-28T11:06:01.049Z,6.12
2019-01-28T11:08:28.366Z,5.83
2019-01-28T11:10:55.719Z,5.80
2019-01-28T11:13:23.034Z,6.37
2019-01-28T11:15:50.356Z,6.65
2019-01-28T11:18:19.221Z,6.30
2019-01-28T11:20:46.569Z,5.87
2019-01-28T11:23:14.002Z,6.65
2019-01-28T11:25:41.277Z,6.40
2019-01-28T11:28:08.670Z,7.15
2019-01-28T11:30:42.312Z,6.80
2019-01-28T11:33:09.686Z,6.90
2019-01-28T11:35:38.492Z,6.12
2019-01-28T11:38:06.240Z,6.87
2019-01-28T11:40:33.728Z,7.17
2019-01-28T11:43:01.160Z,7.45
2019-01-28T11:45:30.127Z,10.85
2019-01-28T11:47:57.731Z,12.33
2019-01-28T11:50:25.691Z,11.22
2019-01-28T11:52:53.008Z,8.25
2019-01-28T11:55:20.301Z,10.60
2019-01-28T11:57:47.765Z,10.58
2019-01-28T12:00:16.681Z,7.72
2019-01-28T12:02:43.974Z,8.03
2019-01-28T12:05:12.372Z,12.30
2019-01-28T12:07:39.871Z,7.90
2019-01-28T12:10:08.245Z,7.62
2019-01-28T12:12:35.535Z,7.80
2019-01-28T12:15:03.324Z,7.70
2019-01-28T12:17:30.641Z,8.00
2019-01-28T12:19:57.973Z,10.05
2019-01-28T12:22:25.578Z,18.12
2019-01-28T12:24:53.156Z,6.95
2019-01-28T12:27:20.478Z,6.90
2019-01-28T12:29:47.771Z,7.95
2019-01-28T12:32:15.061Z,33.02
2019-01-28T12:34:42.381Z,7.50
2019-01-28T12:37:09.703Z,7.40
2019-01-28T12:39:36.986Z,6.75
2019-01-28T12:42:05.782Z,7.10
2019-01-28T12:44:33.197Z,7.25
2019-01-28T12:47:00.491Z,8.10
2019-01-28T12:49:27.773Z,7.37
2019-01-28T12:51:55.091Z,8.00
2019-01-28T12:54:22.406Z,7.90
2019-01-28T12:56:49.703Z,7.75
2019-01-28T12:59:16.998Z,11.97
2019-01-28T13:01:44.301Z,7.72
2019-01-28T13:04:11.595Z,6.50
2019-01-28T13:06:38.882Z,6.90
2019-01-28T13:09:06.666Z,7.50
2019-01-28T13:11:33.952Z,7.78
2019-01-28T13:14:01.274Z,7.30
2019-01-28T13:16:28.561Z,7.15
2019-01-28T13:18:55.861Z,10.15
2019-01-28T13:21:23.237Z,8.75
2019-01-28T13:23:50.521Z,9.43
2019-01-28T13:26:17.847Z,12.10
2019-01-28T13:28:45.138Z,11.03
2019-01-28T13:31:12.467Z,11.25
2019-01-28T13:33:39.777Z,10.40
2019-01-28T13:36:09.499Z,9.40
2019-01-28T13:38:36.034Z,11.20
2019-01-28T13:41:03.404Z,7.85
2019-01-28T13:43:30.725Z,9.70
2019-01-28T13:45:58.008Z,8.48
2019-01-28T13:48:25.320Z,8.15
2019-01-28T13:50:52.623Z,9.43
2019-01-28T13:53:19.942Z,7.12
2019-01-28T13:55:47.246Z,7.00
2019-01-28T13:58:14.676Z,7.90
2019-01-28T14:00:41.985Z,11.30
2019-01-28T14:03:09.276Z,8.38
2019-01-28T14:05:36.586Z,7.50
2019-01-28T14:08:03.878Z,8.30
2019-01-28T14:10:31.194Z,7.85
2019-01-28T14:12:58.487Z,8.33
2019-01-28T14:15:27.402Z,7.12
2019-01-28T14:17:54.718Z,8.10
2019-01-28T14:20:23.267Z,8.25
2019-01-28T14:22:50.581Z,7.50
2019-01-28T14:25:17.879Z,7.05
2019-01-28T14:27:49.551Z,7.05
2019-01-28T14:30:15.770Z,7.85
2019-01-28T14:32:43.063Z,7.22
2019-01-28T14:35:10.375Z,8.23
2019-01-28T14:37:37.649Z,7.50
2019-01-28T14:40:06.570Z,8.48
2019-01-28T14:42:33.893Z,7.90
2019-01-28T14:45:01.189Z,8.48
2019-01-28T14:47:28.501Z,7.70
2019-01-28T14:49:55.800Z,7.53
2019-01-28T14:52:23.125Z,8.13
2019-01-28T14:54:50.409Z,7.60
2019-01-28T14:57:17.719Z,9.58
2019-01-28T14:59:45.011Z,8.33
2019-01-28T15:02:12.297Z,9.93
2019-01-28T15:04:39.622Z,13.22
2019-01-28T15:07:06.897Z,8.55
2019-01-28T15:09:34.222Z,8.80
2019-01-28T15:12:01.519Z,8.13
2019-01-28T15:14:28.827Z,8.33
2019-01-28T15:16:56.158Z,8.35
2019-01-28T15:19:23.437Z,8.20
2019-01-28T15:21:50.761Z,8.63
2019-01-28T15:24:18.046Z,8.10
2019-01-28T15:26:45.345Z,8.63
2019-01-28T15:29:12.647Z,8.05
2019-01-28T15:31:39.933Z,8.50
2019-01-28T15:34:07.227Z,8.80
2019-01-28T15:36:34.547Z,7.78
2019-01-28T15:39:01.842Z,7.67
2019-01-28T15:41:29.129Z,8.55
2019-01-28T15:43:56.432Z,8.73
2019-01-28T15:46:24.729Z,8.70
2019-01-28T15:48:52.143Z,8.53
2019-01-28T15:51:19.439Z,8.33
2019-01-28T15:53:46.767Z,8.50
2019-01-28T15:56:14.076Z,11.43
2019-01-28T15:58:41.374Z,12.37
2019-01-28T16:01:08.705Z,15.70
2019-01-28T16:03:36.006Z,14.47
2019-01-28T16:06:03.324Z,18.10
2019-01-28T16:08:30.631Z,18.73
2019-01-28T16:10:57.957Z,17.25
2019-01-28T16:13:25.249Z,15.88
2019-01-28T16:15:52.536Z,14.45
2019-01-28T16:18:19.854Z,18.23
2019-01-28T16:20:47.163Z,16.90
2019-01-28T16:23:14.489Z,20.45
2019-01-28T16:25:41.818Z,17.20
2019-01-28T16:28:09.109Z,20.72
2019-01-28T16:30:36.563Z,19.50
2019-01-28T16:33:04.120Z,20.30
2019-01-28T16:35:31.443Z,18.90
2019-01-28T16:37:58.772Z,21.20
2019-01-28T16:40:26.999Z,21.00
2019-01-28T16:42:54.322Z,20.75
2019-01-28T16:45:21.629Z,21.55
2019-01-28T16:47:48.956Z,20.88
2019-01-28T16:50:17.625Z,21.80
2019-01-28T16:52:44.935Z,22.82
2019-01-28T16:55:13.234Z,23.92
2019-01-28T16:57:40.536Z,24.82
2019-01-28T17:00:09.481Z,21.50
2019-01-28T17:02:36.806Z,23.25
2019-01-28T17:05:05.706Z,22.90
2019-01-28T17:10:01.545Z,21.10
2019-01-28T17:12:28.931Z,22.62
2019-01-28T17:14:56.226Z,22.62
2019-01-28T17:17:23.561Z,22.35
2019-01-28T17:19:50.858Z,22.67
2019-01-28T17:22:18.158Z,23.22
2019-01-28T17:24:45.484Z,22.55
2019-01-28T17:27:12.800Z,23.45
2019-01-28T17:29:40.118Z,23.75
2019-01-28T17:32:07.419Z,22.65
2019-01-28T17:34:34.718Z,24.23
2019-01-28T17:37:02.038Z,24.63
2019-01-28T17:39:29.333Z,25.15
2019-01-28T17:41:56.624Z,26.75
2019-01-28T17:44:23.942Z,25.37
2019-01-28T17:46:51.233Z,27.17
2019-01-28T17:49:18.525Z,25.05
2019-01-28T17:51:45.847Z,26.60
2019-01-28T17:54:13.138Z,26.12
2019-01-28T17:56:40.457Z,24.50
2019-01-28T17:59:07.745Z,25.32
2019-01-28T18:01:35.073Z,28.45
2019-01-28T18:04:02.394Z,28.02
2019-01-28T18:06:29.690Z,26.62
2019-01-28T18:08:56.987Z,27.07
2019-01-28T18:11:24.379Z,27.05
2019-01-28T18:13:51.677Z,30.02
2019-01-28T18:16:18.993Z,28.07
2019-01-28T18:18:46.394Z,30.45
2019-01-28T18:21:13.710Z,29.98
2019-01-28T18:23:42.660Z,28.57
2019-01-28T18:26:09.972Z,29.30
2019-01-28T18:28:37.268Z,32.85
2019-01-28T18:31:04.682Z,31.15
2019-01-28T18:33:31.971Z,32.30
2019-01-28T18:36:05.503Z,34.38
2019-01-28T18:38:28.240Z,31.07
2019-01-28T18:40:55.564Z,32.35
2019-01-28T18:43:22.861Z,34.05
2019-01-28T18:45:50.166Z,30.23
2019-01-28T18:48:17.490Z,32.48
2019-01-28T18:50:44.786Z,30.65
2019-01-28T18:53:12.078Z,32.53
2019-01-28T18:55:39.414Z,31.62
2019-01-28T18:58:06.706Z,32.13
2019-01-28T19:00:34.512Z,30.62
2019-01-28T19:03:01.805Z,33.18
2019-01-28T19:05:39.798Z,31.65
2019-01-28T19:08:08.734Z,36.03
2019-01-28T19:10:37.840Z,35.03
2019-01-28T19:13:06.739Z,34.73
2019-01-28T19:15:35.688Z,33.85
2019-01-28T19:18:14.004Z,33.33
2019-01-28T19:20:42.962Z,32.05
2019-01-28T19:23:10.275Z,33.23
2019-01-28T19:25:37.590Z,32.17
2019-01-28T19:28:04.922Z,33.90
2019-01-28T19:30:32.396Z,36.65
2019-01-28T19:32:59.699Z,36.75
2019-01-28T19:35:27.005Z,32.73
2019-01-28T19:37:54.292Z,32.53
2019-01-28T19:40:21.610Z,34.38
2019-01-28T19:42:48.906Z,31.60
2019-01-28T19:45:17.664Z,33.13
2019-01-28T19:47:45.610Z,32.65
2019-01-28T19:50:14.481Z,33.13
2019-01-28T19:52:41.776Z,33.38
2019-01-28T19:55:10.261Z,32.17
2019-01-28T19:57:39.029Z,32.95
2019-01-28T20:00:08.013Z,32.53
2019-01-28T20:02:35.382Z,31.75
2019-01-28T20:05:02.643Z,31.25
2019-01-28T20:07:29.934Z,31.27
2019-01-28T20:09:57.228Z,32.13
2019-01-28T20:12:24.550Z,31.10
2019-01-28T20:14:51.853Z,29.07
2019-01-28T20:17:19.170Z,30.52
2019-01-28T20:19:46.469Z,30.52
2019-01-28T20:22:13.862Z,28.60
2019-01-28T20:24:41.195Z,29.10
2019-01-28T20:27:08.498Z,30.05
2019-01-28T20:29:35.791Z,30.43
2019-01-28T20:32:03.134Z,30.27
2019-01-28T20:34:30.455Z,29.82
2019-01-28T20:36:57.755Z,28.35
2019-01-28T20:39:25.098Z,29.32
2019-01-28T20:41:52.422Z,28.00
2019-01-28T20:44:19.716Z,26.02
2019-01-28T20:46:48.517Z,27.30
2019-01-28T20:49:15.999Z,29.20
2019-01-28T20:51:43.336Z,27.75
2019-01-28T20:54:10.623Z,25.32
2019-01-28T20:56:37.947Z,25.30
2019-01-28T20:59:05.243Z,25.02
2019-01-28T21:01:32.580Z,24.77
2019-01-28T21:03:59.892Z,25.27
2019-01-28T21:06:27.183Z,24.37
2019-01-28T21:08:54.498Z,24.70
2019-01-28T21:11:21.827Z,23.55
2019-01-28T21:13:49.166Z,21.48
2019-01-28T21:16:16.433Z,24.25
2019-01-28T21:18:43.709Z,22.45
2019-01-28T21:21:11.037Z,22.32
2019-01-28T21:23:38.342Z,20.50
2019-01-28T21:26:05.642Z,20.27
2019-01-28T21:28:32.960Z,18.92
2019-01-28T21:31:00.257Z,20.12
2019-01-28T21:33:27.561Z,18.20
2019-01-28T21:35:56.528Z,18.50
2019-01-28T21:38:31.243Z,17.02
2019-01-28T21:40:58.562Z,18.87
2019-01-28T21:43:25.853Z,17.40
2019-01-28T21:45:53.241Z,18.60
2019-01-28T21:48:20.534Z,19.35
2019-01-28T21:50:47.850Z,18.62
2019-01-28T21:53:15.144Z,18.42
2019-01-28T21:55:42.638Z,16.97
2019-01-28T21:58:09.966Z,18.35
2019-01-28T22:00:37.253Z,19.25
2019-01-28T22:03:04.818Z,18.50
2019-01-28T22:05:32.460Z,20.40
2019-01-28T22:08:00.334Z,21.55
2019-01-28T22:10:27.686Z,20.72
2019-01-28T22:12:54.991Z,22.48
2019-01-28T22:15:22.287Z,20.60
2019-01-28T22:17:49.611Z,19.77
2019-01-28T22:20:16.897Z,17.15
2019-01-28T22:22:44.228Z,17.50
2019-01-28T22:25:13.221Z,15.85
2019-01-28T22:27:40.530Z,15.15
2019-01-28T22:30:09.478Z,17.37
2019-01-28T22:32:36.790Z,16.20
2019-01-28T22:35:05.718Z,15.30
2019-01-28T22:37:33.038Z,14.93
2019-01-28T22:40:00.347Z,16.15
2019-01-28T22:42:27.642Z,15.30
2019-01-28T22:44:54.960Z,14.55
2019-01-28T22:47:22.257Z,16.77
2019-01-28T22:49:49.551Z,14.98
2019-01-28T22:52:16.856Z,13.62
2019-01-28T22:54:44.158Z,15.10
2019-01-28T22:57:11.472Z,14.58
2019-01-28T22:59:38.776Z,12.47
2019-01-28T23:02:06.137Z,12.73
2019-01-28T23:04:33.458Z,12.15
2019-01-28T23:07:00.751Z,11.55
2019-01-28T23:09:28.041Z,10.32
2019-01-28T23:11:55.362Z,11.40
2019-01-28T23:14:22.653Z,10.90
2019-01-28T23:16:49.994Z,10.70
2019-01-28T23:19:17.294Z,12.78
2019-01-28T23:21:44.590Z,11.15
2019-01-28T23:24:11.917Z,10.58
2019-01-28T23:26:39.193Z,10.25
2019-01-28T23:29:06.526Z,11.15
2019-01-28T23:31:33.838Z,11.40
2019-01-28T23:34:01.177Z,14.35
2019-01-28T23:36:28.466Z,12.88
2019-01-28T23:38:55.756Z,14.03
2019-01-28T23:41:23.082Z,13.85
2019-01-28T23:43:50.381Z,12.88
2019-01-28T23:46:17.689Z,14.90
2019-01-28T23:48:45.006Z,17.32
2019-01-28T23:51:12.320Z,14.07
2019-01-28T23:53:39.633Z,17.05
2019-01-28T23:56:06.939Z,15.85
2019-01-28T23:58:34.258Z,19.80
